Skip Navigation Links Skip Navigation Links

Current Weather

Stewart Int'L, Newburgh, N.Y.

For information only: do not use for flight planning or navigation.
Latest weather
Observation time Sunday, August 1, 2021 4:45 AM EDT
Local time Sunday, August 1, 2021 5:52 AM EDT
Flight conditions Visual Meteorological Conditions
Winds
Wind speed calm
Visibility 10 mi.
Sky condition
Ceiling unlimited
Sky clear
Temperature 55°F
Dewpoint 55°F
Altimeter 29.94 in.Hg
Derived measurements
Relative humidity 100%
Density altitude 441 ft.
METAR KSWF 010845Z 00000KT 10SM SKC 13/13 A2994

Settings

Location code

InnerDrive.Weather 4.0.6770.0 Release CLR 4.0.30319.42000
Copyright ©2018 Inner Drive Technology. All rights reserved. Portions Copyright ©1986-2018 David Braverman.

Find weather

Site navigation


Skip Navigation Links

Place info

Page info

PayPal - The safer, easier way to pay online!

Return home.

Copyright ©2021 Inner Drive Technology. Purveyors of fine, hand-crafted computer software. Page printed 2021-08-01T09:52:32 UTC.